createdAt,value
2017-07-30T11:00:53.966Z,25.20
2017-07-30T11:03:57.325Z,24.90
2017-07-30T11:07:00.641Z,24.80
2017-07-30T11:10:03.940Z,24.80
2017-07-30T11:13:07.260Z,24.70
2017-07-30T11:16:10.696Z,24.60
2017-07-30T11:19:14.769Z,24.50
2017-07-30T11:22:18.209Z,24.40
2017-07-30T11:25:22.286Z,24.90
2017-07-30T11:28:25.618Z,24.90
2017-07-30T11:31:29.685Z,25.20
2017-07-30T11:34:33.178Z,25.10
2017-07-30T11:37:36.462Z,25.40
2017-07-30T11:40:39.779Z,25.60
2017-07-30T11:43:43.054Z,25.70
2017-07-30T11:46:46.396Z,25.80
2017-07-30T11:49:49.675Z,25.80
2017-07-30T11:52:52.993Z,25.90
2017-07-30T11:55:56.450Z,26.10
2017-07-30T11:59:00.581Z,26.30
2017-07-30T12:02:04.011Z,26.40
2017-07-30T12:05:08.096Z,26.30
2017-07-30T12:08:11.405Z,26.30
2017-07-30T12:11:14.711Z,26.10
2017-07-30T12:14:18.024Z,26.10
2017-07-30T12:17:21.332Z,26.00
2017-07-30T12:20:25.418Z,26.00
2017-07-30T12:23:28.891Z,26.00
2017-07-30T12:26:32.388Z,25.70
2017-07-30T12:29:35.725Z,25.80
2017-07-30T12:32:39.790Z,25.90
2017-07-30T12:35:43.113Z,25.90
2017-07-30T12:38:46.439Z,26.00
2017-07-30T12:41:50.697Z,26.10
2017-07-30T12:44:54.162Z,26.10
2017-07-30T12:47:57.690Z,26.20
2017-07-30T12:51:01.130Z,26.30
2017-07-30T12:54:04.401Z,26.20
2017-07-30T12:57:07.735Z,26.20
2017-07-30T13:00:11.036Z,26.20
2017-07-30T13:03:15.117Z,26.10
2017-07-30T13:06:18.450Z,26.10
2017-07-30T13:09:22.537Z,26.10
2017-07-30T13:12:25.814Z,26.10
2017-07-30T13:15:29.184Z,26.10
2017-07-30T13:18:32.582Z,26.20
2017-07-30T13:21:36.121Z,26.30
2017-07-30T13:24:39.879Z,26.40
2017-07-30T13:27:43.370Z,26.70
2017-07-30T13:30:46.868Z,27.00
2017-07-30T13:33:51.118Z,27.50
2017-07-30T13:36:54.626Z,27.50
2017-07-30T13:39:58.116Z,27.20
2017-07-30T13:43:01.608Z,26.60
2017-07-30T13:46:05.075Z,26.50
2017-07-30T13:49:08.565Z,26.30
2017-07-30T13:52:12.075Z,26.20
2017-07-30T13:55:15.351Z,26.10
2017-07-30T13:58:18.789Z,26.60
2017-07-30T14:01:22.069Z,27.10
2017-07-30T14:04:25.396Z,27.30
2017-07-30T14:07:28.701Z,27.40
2017-07-30T14:10:32.006Z,27.60
2017-07-30T14:13:35.282Z,27.20
2017-07-30T14:16:38.618Z,27.20
2017-07-30T14:19:41.961Z,27.20
2017-07-30T14:22:46.026Z,27.40
2017-07-30T14:25:49.337Z,27.50
2017-07-30T14:28:52.613Z,27.60
2017-07-30T14:31:55.922Z,27.60
2017-07-30T14:34:59.228Z,27.80
2017-07-30T14:38:02.579Z,27.80
2017-07-30T14:41:05.864Z,27.20
2017-07-30T14:44:09.197Z,26.90
2017-07-30T14:47:12.915Z,26.50
2017-07-30T14:50:16.199Z,26.50
2017-07-30T14:53:19.512Z,26.90
2017-07-30T14:56:22.806Z,26.90
2017-07-30T14:59:26.118Z,27.20
2017-07-30T15:02:29.422Z,27.40
2017-07-30T15:05:32.741Z,27.50
2017-07-30T15:08:36.049Z,27.70
2017-07-30T15:11:39.385Z,27.60
2017-07-30T15:14:42.697Z,27.30
2017-07-30T15:17:46.007Z,27.20
2017-07-30T15:20:50.118Z,27.30
2017-07-30T15:23:53.417Z,27.30
2017-07-30T15:26:57.529Z,27.00
2017-07-30T15:30:00.832Z,27.00
2017-07-30T15:33:04.911Z,26.40
2017-07-30T15:36:08.551Z,26.40
2017-07-30T15:39:12.609Z,26.20
2017-07-30T15:42:15.947Z,26.20
2017-07-30T15:45:19.256Z,26.30
2017-07-30T15:48:22.597Z,26.30
2017-07-30T15:51:25.901Z,26.40
2017-07-30T15:54:29.213Z,26.70
2017-07-30T15:57:32.525Z,26.80
2017-07-30T16:00:35.862Z,26.70
2017-07-30T16:03:39.162Z,26.60
2017-07-30T16:06:42.483Z,26.40
2017-07-30T16:09:45.767Z,26.20
2017-07-30T16:12:49.082Z,26.10
2017-07-30T16:15:52.767Z,26.00
2017-07-30T16:18:56.077Z,25.80
2017-07-30T16:21:59.414Z,25.70
2017-07-30T16:25:02.714Z,25.70
2017-07-30T16:28:06.792Z,25.70
2017-07-30T16:31:10.098Z,25.70
2017-07-30T16:34:13.411Z,25.60
2017-07-30T16:37:16.717Z,25.70
2017-07-30T16:40:20.810Z,25.60
2017-07-30T16:43:24.132Z,25.60
2017-07-30T16:46:27.438Z,25.60
2017-07-30T16:49:31.520Z,25.40
2017-07-30T16:52:34.847Z,25.40
2017-07-30T16:55:38.186Z,25.30
2017-07-30T16:58:42.264Z,25.10
2017-07-30T17:01:45.610Z,25.10
2017-07-30T17:04:48.910Z,25.00
2017-07-30T17:07:52.246Z,25.00
2017-07-30T17:10:55.723Z,25.00
2017-07-30T17:13:59.021Z,25.00
2017-07-30T17:17:02.466Z,24.80
2017-07-30T17:20:05.748Z,24.90
2017-07-30T17:23:09.066Z,25.00
2017-07-30T17:26:13.137Z,24.90
2017-07-30T17:29:16.447Z,24.80
2017-07-30T17:32:19.750Z,24.80
2017-07-30T17:35:23.073Z,24.80
2017-07-30T17:38:27.349Z,24.70
2017-07-30T17:41:32.251Z,24.70
2017-07-30T17:44:35.577Z,24.60
2017-07-30T17:47:39.154Z,24.70
2017-07-30T17:50:43.268Z,24.70
2017-07-30T17:53:46.804Z,24.80
2017-07-30T17:56:51.003Z,24.80
2017-07-30T17:59:55.265Z,24.80
2017-07-30T18:02:58.882Z,24.80
2017-07-30T18:06:03.019Z,24.60
2017-07-30T18:09:07.663Z,24.60
2017-07-30T18:12:12.826Z,24.60
2017-07-30T18:15:18.087Z,24.50
2017-07-30T18:18:22.752Z,24.50
2017-07-30T18:21:27.063Z,24.50
2017-07-30T18:24:31.351Z,24.50
2017-07-30T18:27:37.145Z,24.50
2017-07-30T18:30:42.396Z,24.50
2017-07-30T18:33:45.957Z,24.60
2017-07-30T18:36:49.261Z,24.50
2017-07-30T18:39:53.552Z,24.60
2017-07-30T18:42:59.388Z,24.60
2017-07-30T18:46:03.957Z,24.60
2017-07-30T18:49:08.321Z,24.50
2017-07-30T18:52:12.203Z,24.50
2017-07-30T18:55:16.068Z,24.40
2017-07-30T18:58:20.028Z,24.50
2017-07-30T19:01:23.676Z,24.40
2017-07-30T19:04:27.432Z,24.40
2017-07-30T19:07:31.396Z,24.30
2017-07-30T19:10:35.130Z,24.30
2017-07-30T19:13:38.945Z,24.20
2017-07-30T19:16:42.826Z,24.30
2017-07-30T19:19:46.523Z,24.20
2017-07-30T19:22:51.334Z,24.20
2017-07-30T19:25:57.150Z,24.20
2017-07-30T19:29:01.583Z,24.10
2017-07-30T19:32:05.247Z,24.10
2017-07-30T19:35:08.856Z,24.10
2017-07-30T19:38:12.857Z,24.10
2017-07-30T19:41:18.770Z,24.10
2017-07-30T19:44:22.437Z,24.00
2017-07-30T19:47:27.212Z,24.00
2017-07-30T19:50:31.232Z,24.00
2017-07-30T19:53:35.446Z,23.90
2017-07-30T19:56:39.899Z,23.70
2017-07-30T19:59:43.981Z,23.80
2017-07-30T20:02:47.304Z,23.70
2017-07-30T20:05:50.659Z,23.70
2017-07-30T20:08:55.507Z,23.70
2017-07-30T20:12:01.567Z,23.80
2017-07-30T20:15:06.168Z,23.60
2017-07-30T20:18:11.066Z,23.40
2017-07-30T20:21:15.532Z,23.30
2017-07-30T20:24:18.846Z,23.30
2017-07-30T20:27:22.200Z,23.30
2017-07-30T20:30:25.485Z,23.30
2017-07-30T20:33:29.613Z,23.30
2017-07-30T20:36:33.952Z,23.20
2017-07-30T20:39:37.328Z,23.20
2017-07-30T20:42:41.398Z,23.10
2017-07-30T20:45:44.737Z,23.10
2017-07-30T20:48:49.463Z,23.00
2017-07-30T20:51:54.502Z,22.90
2017-07-30T20:54:58.547Z,22.90
2017-07-30T20:58:01.867Z,22.80
2017-07-30T21:01:05.284Z,22.80
2017-07-30T21:04:08.597Z,22.80
2017-07-30T21:07:11.913Z,22.80
2017-07-30T21:10:15.962Z,22.80
2017-07-30T21:13:19.727Z,22.80
2017-07-30T21:16:24.795Z,22.80
2017-07-30T21:19:28.879Z,22.70
2017-07-30T21:22:32.293Z,22.70
2017-07-30T21:25:35.636Z,22.60
2017-07-30T21:28:38.917Z,22.60
2017-07-30T21:31:42.248Z,22.60
2017-07-30T21:34:45.553Z,22.60
2017-07-30T21:37:49.096Z,22.50
2017-07-30T21:40:52.586Z,22.40
2017-07-30T21:43:55.925Z,22.30
2017-07-30T21:46:59.362Z,22.30
2017-07-30T21:50:02.705Z,22.40
2017-07-30T21:53:06.316Z,22.30
2017-07-30T21:56:09.594Z,22.30
2017-07-30T21:59:12.910Z,22.30
2017-07-30T22:02:16.217Z,22.20
2017-07-30T22:05:19.529Z,22.20
2017-07-30T22:08:22.815Z,22.30
2017-07-30T22:11:26.189Z,22.30
2017-07-30T22:14:29.498Z,22.30
2017-07-30T22:17:32.836Z,22.30
2017-07-30T22:20:37.117Z,22.10
2017-07-30T22:23:40.416Z,22.10
2017-07-30T22:26:43.729Z,22.10
2017-07-30T22:29:47.029Z,22.10
2017-07-30T22:32:50.347Z,21.90
2017-07-30T22:35:54.448Z,22.00
2017-07-30T22:38:57.761Z,22.00
2017-07-30T22:42:01.831Z,21.90
2017-07-30T22:45:05.143Z,21.90
2017-07-30T22:48:08.429Z,21.90
2017-07-30T22:51:11.766Z,21.90
2017-07-30T22:54:15.068Z,22.00
2017-07-30T22:57:18.405Z,22.00
2017-07-30T23:00:21.705Z,22.00
2017-07-30T23:03:25.045Z,22.00
2017-07-30T23:06:29.116Z,21.90
2017-07-30T23:09:32.430Z,21.80
2017-07-30T23:12:35.864Z,21.90
2017-07-30T23:15:39.172Z,21.90
2017-07-30T23:18:42.505Z,21.60
2017-07-30T23:21:45.813Z,21.60
2017-07-30T23:24:49.126Z,21.60
2017-07-30T23:27:52.413Z,21.80
2017-07-30T23:30:55.754Z,21.60
2017-07-30T23:33:59.030Z,21.60
2017-07-30T23:37:03.115Z,21.70
2017-07-30T23:40:06.397Z,21.70
2017-07-30T23:43:09.708Z,21.70
2017-07-30T23:46:12.987Z,21.50
2017-07-30T23:49:16.330Z,21.40
2017-07-30T23:52:19.673Z,21.60
2017-07-30T23:55:22.957Z,21.60
2017-07-30T23:58:27.018Z,21.60
